sensor_id;sensor_type;location;lat;lon;timestamp;P1;durP1;ratioP1;P2;durP2;ratioP2
42666;SDS011;28280;49.646;14.130;2023-02-17T00:04:02;16.33;;;9.32;;
42666;SDS011;28280;49.646;14.130;2023-02-17T00:14:23;15.95;;;9.57;;
42666;SDS011;28280;49.646;14.130;2023-02-17T00:24:44;16.92;;;9.05;;
42666;SDS011;28280;49.646;14.130;2023-02-17T00:35:06;14.05;;;9.00;;
42666;SDS011;28280;49.646;14.130;2023-02-17T00:45:27;18.45;;;9.45;;
42666;SDS011;28280;49.646;14.130;2023-02-17T00:55:49;16.35;;;9.27;;
42666;SDS011;28280;49.646;14.130;2023-02-17T01:06:13;16.40;;;9.48;;
42666;SDS011;28280;49.646;14.130;2023-02-17T01:16:44;16.80;;;9.85;;
42666;SDS011;28280;49.646;14.130;2023-02-17T01:27:07;16.83;;;8.75;;
42666;SDS011;28280;49.646;14.130;2023-02-17T01:37:30;13.40;;;8.75;;
42666;SDS011;28280;49.646;14.130;2023-02-17T01:47:59;14.27;;;8.50;;
42666;SDS011;28280;49.646;14.130;2023-02-17T01:58:22;16.02;;;8.43;;
42666;SDS011;28280;49.646;14.130;2023-02-17T02:08:46;15.38;;;8.88;;
42666;SDS011;28280;49.646;14.130;2023-02-17T02:40:18;14.20;;;8.02;;
42666;SDS011;28280;49.646;14.130;2023-02-17T03:01:30;11.85;;;7.15;;
42666;SDS011;28280;49.646;14.130;2023-02-17T03:11:55;13.27;;;7.60;;
42666;SDS011;28280;49.646;14.130;2023-02-17T03:22:23;11.23;;;6.25;;
42666;SDS011;28280;49.646;14.130;2023-02-17T03:32:46;12.55;;;7.30;;
42666;SDS011;28280;49.646;14.130;2023-02-17T03:43:08;11.88;;;6.57;;
42666;SDS011;28280;49.646;14.130;2023-02-17T03:53:29;12.80;;;6.95;;
42666;SDS011;28280;49.646;14.130;2023-02-17T04:03:50;10.05;;;6.28;;
42666;SDS011;28280;49.646;14.130;2023-02-17T04:14:11;10.93;;;5.93;;
42666;SDS011;28280;49.646;14.130;2023-02-17T04:24:34;9.43;;;5.72;;
42666;SDS011;28280;49.646;14.130;2023-02-17T04:34:56;11.20;;;5.70;;
42666;SDS011;28280;49.646;14.130;2023-02-17T04:45:17;10.32;;;5.22;;
42666;SDS011;28280;49.646;14.130;2023-02-17T04:55:39;9.93;;;5.25;;
42666;SDS011;28280;49.646;14.130;2023-02-17T05:06:00;9.23;;;5.25;;
42666;SDS011;28280;49.646;14.130;2023-02-17T05:16:22;9.88;;;5.18;;
42666;SDS011;28280;49.646;14.130;2023-02-17T05:26:43;9.43;;;5.13;;
42666;SDS011;28280;49.646;14.130;2023-02-17T05:37:04;9.75;;;4.90;;
42666;SDS011;28280;49.646;14.130;2023-02-17T05:47:25;7.22;;;4.82;;
42666;SDS011;28280;49.646;14.130;2023-02-17T05:57:47;9.05;;;5.07;;
42666;SDS011;28280;49.646;14.130;2023-02-17T06:08:08;8.18;;;4.78;;
42666;SDS011;28280;49.646;14.130;2023-02-17T06:18:30;7.30;;;4.97;;
42666;SDS011;28280;49.646;14.130;2023-02-17T06:28:51;6.88;;;4.50;;
42666;SDS011;28280;49.646;14.130;2023-02-17T06:39:12;8.52;;;4.25;;
42666;SDS011;28280;49.646;14.130;2023-02-17T06:49:34;8.18;;;4.72;;
42666;SDS011;28280;49.646;14.130;2023-02-17T06:59:55;9.30;;;5.15;;
42666;SDS011;28280;49.646;14.130;2023-02-17T07:10:16;6.93;;;4.70;;
42666;SDS011;28280;49.646;14.130;2023-02-17T07:20:37;8.70;;;4.50;;
42666;SDS011;28280;49.646;14.130;2023-02-17T07:31:09;7.88;;;5.10;;
42666;SDS011;28280;49.646;14.130;2023-02-17T07:41:31;11.68;;;3.80;;
42666;SDS011;28280;49.646;14.130;2023-02-17T07:52:00;9.05;;;4.30;;
42666;SDS011;28280;49.646;14.130;2023-02-17T08:02:24;9.18;;;4.82;;
42666;SDS011;28280;49.646;14.130;2023-02-17T08:12:46;7.38;;;4.38;;
42666;SDS011;28280;49.646;14.130;2023-02-17T08:23:26;6.88;;;4.13;;
42666;SDS011;28280;49.646;14.130;2023-02-17T08:33:47;6.90;;;4.25;;
42666;SDS011;28280;49.646;14.130;2023-02-17T08:44:12;9.52;;;4.82;;
42666;SDS011;28280;49.646;14.130;2023-02-17T08:54:36;8.32;;;4.97;;
42666;SDS011;28280;49.646;14.130;2023-02-17T09:04:58;8.55;;;4.47;;
42666;SDS011;28280;49.646;14.130;2023-02-17T09:15:19;8.75;;;4.28;;
42666;SDS011;28280;49.646;14.130;2023-02-17T09:25:41;8.23;;;4.30;;
42666;SDS011;28280;49.646;14.130;2023-02-17T09:36:03;7.22;;;4.38;;
42666;SDS011;28280;49.646;14.130;2023-02-17T09:56:55;7.70;;;3.83;;
42666;SDS011;28280;49.646;14.130;2023-02-17T10:07:24;6.25;;;4.13;;
42666;SDS011;28280;49.646;14.130;2023-02-17T10:49:48;7.32;;;3.80;;
42666;SDS011;28280;49.646;14.130;2023-02-17T11:00:16;8.48;;;3.40;;
42666;SDS011;28280;49.646;14.130;2023-02-17T11:10:39;4.55;;;3.00;;
42666;SDS011;28280;49.646;14.130;2023-02-17T11:21:05;5.45;;;3.13;;
42666;SDS011;28280;49.646;14.130;2023-02-17T11:31:29;4.57;;;3.00;;
42666;SDS011;28280;49.646;14.130;2023-02-17T11:41:51;5.28;;;2.88;;
42666;SDS011;28280;49.646;14.130;2023-02-17T11:52:25;4.95;;;2.95;;
42666;SDS011;28280;49.646;14.130;2023-02-17T12:02:53;4.43;;;2.88;;
42666;SDS011;28280;49.646;14.130;2023-02-17T12:13:34;4.22;;;2.53;;
42666;SDS011;28280;49.646;14.130;2023-02-17T12:34:54;6.38;;;2.47;;
42666;SDS011;28280;49.646;14.130;2023-02-17T12:45:41;5.30;;;2.70;;
42666;SDS011;28280;49.646;14.130;2023-02-17T12:56:03;2.95;;;2.20;;
42666;SDS011;28280;49.646;14.130;2023-02-17T13:06:41;4.70;;;2.45;;
42666;SDS011;28280;49.646;14.130;2023-02-17T13:17:05;5.70;;;2.55;;
42666;SDS011;28280;49.646;14.130;2023-02-17T13:37:47;3.42;;;2.22;;
42666;SDS011;28280;49.646;14.130;2023-02-17T13:58:54;3.58;;;2.28;;
42666;SDS011;28280;49.646;14.130;2023-02-17T14:09:28;3.42;;;2.30;;
42666;SDS011;28280;49.646;14.130;2023-02-17T14:19:50;3.28;;;2.08;;
42666;SDS011;28280;49.646;14.130;2023-02-17T14:30:26;2.95;;;1.80;;
42666;SDS011;28280;49.646;14.130;2023-02-17T14:40:48;2.33;;;1.83;;
42666;SDS011;28280;49.646;14.130;2023-02-17T14:51:14;2.08;;;1.73;;
42666;SDS011;28280;49.646;14.130;2023-02-17T15:01:37;2.78;;;1.90;;
42666;SDS011;28280;49.646;14.130;2023-02-17T15:11:58;3.30;;;1.70;;
42666;SDS011;28280;49.646;14.130;2023-02-17T15:22:20;3.25;;;1.60;;
42666;SDS011;28280;49.646;14.130;2023-02-17T15:32:41;2.28;;;1.70;;
42666;SDS011;28280;49.646;14.130;2023-02-17T15:43:03;2.58;;;1.70;;
42666;SDS011;28280;49.646;14.130;2023-02-17T15:53:24;2.20;;;1.55;;
42666;SDS011;28280;49.646;14.130;2023-02-17T16:03:45;4.60;;;2.00;;
42666;SDS011;28280;49.646;14.130;2023-02-17T16:14:07;3.67;;;1.67;;
42666;SDS011;28280;49.646;14.130;2023-02-17T16:24:31;2.47;;;1.60;;
42666;SDS011;28280;49.646;14.130;2023-02-17T16:34:52;1.88;;;1.48;;
42666;SDS011;28280;49.646;14.130;2023-02-17T16:45:14;3.08;;;1.40;;
42666;SDS011;28280;49.646;14.130;2023-02-17T16:55:37;2.40;;;1.55;;
42666;SDS011;28280;49.646;14.130;2023-02-17T17:05:58;2.63;;;1.60;;
42666;SDS011;28280;49.646;14.130;2023-02-17T17:16:23;2.88;;;1.52;;
42666;SDS011;28280;49.646;14.130;2023-02-17T17:26:51;2.72;;;1.80;;
42666;SDS011;28280;49.646;14.130;2023-02-17T17:37:12;3.10;;;1.70;;
42666;SDS011;28280;49.646;14.130;2023-02-17T17:47:33;2.42;;;1.63;;
42666;SDS011;28280;49.646;14.130;2023-02-17T17:57:54;2.78;;;1.40;;
42666;SDS011;28280;49.646;14.130;2023-02-17T18:08:15;1.75;;;1.30;;
42666;SDS011;28280;49.646;14.130;2023-02-17T18:18:38;3.00;;;1.48;;
42666;SDS011;28280;49.646;14.130;2023-02-17T18:29:00;5.03;;;1.65;;
42666;SDS011;28280;49.646;14.130;2023-02-17T18:39:22;1.90;;;1.40;;
42666;SDS011;28280;49.646;14.130;2023-02-17T18:49:44;2.08;;;1.17;;
42666;SDS011;28280;49.646;14.130;2023-02-17T19:00:06;1.83;;;1.35;;
42666;SDS011;28280;49.646;14.130;2023-02-17T19:10:29;2.35;;;1.27;;
42666;SDS011;28280;49.646;14.130;2023-02-17T19:20:52;1.70;;;1.20;;
42666;SDS011;28280;49.646;14.130;2023-02-17T19:31:14;2.00;;;1.30;;
42666;SDS011;28280;49.646;14.130;2023-02-17T19:41:41;2.60;;;1.05;;
42666;SDS011;28280;49.646;14.130;2023-02-17T19:52:03;1.85;;;1.27;;
42666;SDS011;28280;49.646;14.130;2023-02-17T20:02:26;1.30;;;1.08;;
42666;SDS011;28280;49.646;14.130;2023-02-17T20:12:47;1.50;;;1.27;;
42666;SDS011;28280;49.646;14.130;2023-02-17T20:23:08;1.80;;;1.05;;
42666;SDS011;28280;49.646;14.130;2023-02-17T20:33:30;1.85;;;1.08;;
42666;SDS011;28280;49.646;14.130;2023-02-17T20:43:51;1.40;;;1.02;;
42666;SDS011;28280;49.646;14.130;2023-02-17T20:54:13;1.90;;;1.23;;
42666;SDS011;28280;49.646;14.130;2023-02-17T21:04:34;1.50;;;1.20;;
42666;SDS011;28280;49.646;14.130;2023-02-17T21:14:55;1.67;;;1.00;;
42666;SDS011;28280;49.646;14.130;2023-02-17T21:25:16;2.05;;;1.20;;
42666;SDS011;28280;49.646;14.130;2023-02-17T21:35:38;1.38;;;1.05;;
42666;SDS011;28280;49.646;14.130;2023-02-17T21:45:59;1.83;;;1.10;;
42666;SDS011;28280;49.646;14.130;2023-02-17T21:56:21;1.70;;;1.10;;
42666;SDS011;28280;49.646;14.130;2023-02-17T22:06:43;1.10;;;1.00;;
42666;SDS011;28280;49.646;14.130;2023-02-17T22:17:04;1.30;;;1.02;;
42666;SDS011;28280;49.646;14.130;2023-02-17T22:27:26;2.50;;;1.40;;
42666;SDS011;28280;49.646;14.130;2023-02-17T22:37:47;1.33;;;0.93;;
42666;SDS011;28280;49.646;14.130;2023-02-17T22:48:08;3.15;;;1.20;;
42666;SDS011;28280;49.646;14.130;2023-02-17T22:58:30;1.92;;;1.10;;
42666;SDS011;28280;49.646;14.130;2023-02-17T23:08:51;1.85;;;1.25;;
42666;SDS011;28280;49.646;14.130;2023-02-17T23:19:15;2.50;;;1.55;;
42666;SDS011;28280;49.646;14.130;2023-02-17T23:29:38;1.60;;;1.10;;
42666;SDS011;28280;49.646;14.130;2023-02-17T23:40:01;1.92;;;1.27;;
42666;SDS011;28280;49.646;14.130;2023-02-17T23:50:23;1.75;;;1.30;;
